Delight, Arkansas
Current Conditions -  °F | °C
As of 4:33 AM on Monday 20 Oct 2014 (Local Time) from KADF Reporting Station
Scattered Clouds Scattered Clouds  
Wind Chill:   Ceiling: Unl
Heat Index:   Visibility: 7mi
Dew Point:   Wind: 0mph
Humidity: 100%   Direction: NA
Pressure: 30.08"   Gusts: NA
Location:  34.03°N, 93.5°W
Report Text: KADF 200933Z AUTO 00000KT 7SM SCT002 09/09 A3008 RMK AO2
Loading
Personal Weather Stations






























Interactive Weather Map
Tropical Storm Tracking
New forecast layout! Learn more

10-Day Weather Forecast

Advertisements
Track Severe Weather on mobile